Meath Environmental Platform

Observations for Trim Patrick St

Time AQI Temp °C Hum % Pres Pa CO μg/m³ H₂S μg/m³ NO μg/m³ NO₂ μg/m³ O₃ μg/m³ SO₂ μg/m³ PM1 μg/m³ PM2.5 μg/m³ PM10 μg/m³
Monday 3 August 2026
11:44 2 28.8 44 69,110 0 0 2.09 8.73 73.87 9.87 5.43 11.46 12.6
11:43 2 28.8 39 69,128 0 0 1.78 9.41 109.44 9.87 4.57 10.22 11.25
11:42 2 28.8 43 69,120 0 0 2.1 5.69 69.68 8.51 5.43 9.95 10.94
11:41 2 28.8 38 69,139 0 0 1.75 5.61 74.79 9.16 4.57 11.08 12.18
11:40 2 28.8 43 69,136 0 0 2.14 7.97 75.67 9.46 4.57 9.18 10.09
11:39 2 28.8 44 69,126 0 0 2.13 12.45 70.78 8.26 3.71 9.93 10.92
11:38 2 28.7 43 69,112 0 0 2.07 12.03 71.87 8.87 3.71 9.95 10.95
11:37 2 28.7 41 69,098 0 0 1.83 13.48 79.71 8.67 4.57 10.12 11.13
11:36 2 28.6 46 69,104 0 0 2.18 11.03 70.68 8.94 3.71 9 9.9
11:35 2 28.6 43 69,116 0 0 1.91 19.31 99.12 9 3.71 9.95 10.95
11:34 2 28.5 46 69,098 0 0 2.1 11.41 79.03 8.12 2 8.2 9.02
11:33 2 28.4 45 69,108 0 0 2.01 11.52 75.85 8.38 4.57 10.61 11.67
11:32 2 28.2 45 69,090 0 0 2.01 15.36 114.47 7.4 2.86 9.04 9.95
11:31 2 28 47 69,065 0 0 2.18 7.71 82.2 9.07 5.43 11.19 12.31
11:30 2 27.9 45 69,065 0 0 2.02 7.98 84.21 7.95 5.43 10.57 11.63
11:29 2 27.8 48 69,069 0 0 2.26 3.55 71.96 8.34 4.57 9.61 10.57
11:28 2 27.6 48 69,076 0 0 2.25 9.38 96.73 7.75 3.71 9.63 10.59
11:27 2 27.6 48 69,051 0 0 2.28 2.46 70.89 7.54 4.57 10.37 11.41
11:26 2 27.6 42 69,051 0 0 1.75 4.3 75.23 7.91 3.71 10.05 11.05
11:25 2 27.6 46 69,053 0 0 2.06 1.34 70.99 8.31 4.57 11.3 12.43